KADG/ADG METAR and TAF weather

Enter ICAO airport designator
Station Type Date Time Source
KADG METAR 2019/06/19 02:53 UTC NOAA

KADG 190253Z AUTO 12003KT 10SM CLR 19/16 A2989 RMK AO2 SLP118 T01940156 53006 TSNO


Station Type Date Time Source
KADG Decoded METAR 2019/06/19 02:53 UTC NOAA

ADRIAN LENAWEE COUNTY AIRPORT, MI, United States (KADG) 41-52N 84-05W 241M
Jun 18, 2019 - 10:53 PM EDT / 2019.06.19 0253 UTC
Wind: from the ESE (120 degrees) at 3 MPH (3 KT):0
Visibility: 10 mile(s):0
Sky conditions: clear
Temperature: 66.9 F (19.4 C)
Dew Point: 60.1 F (15.6 C)
Relative Humidity: 78%
Pressure (altimeter): 29.89 in. Hg (1012 hPa)
Pressure tendency: 0.02 inches (0.6 hPa) higher than three hours ago
ob: KADG 190253Z AUTO 12003KT 10SM CLR 19/16 A2989 RMK AO2 SLP118 T01940156 53006 TSNO
cycle: 3

Station Type Date Time Source
KADG TAF UTC NOAA

Error!

Example: see airport list